Hovedside
METAR-TAF:

METAR-TAF

Lufthavner :

Vadsø lufthavn

Vadsø, Norge

breddegrad: 70-04N, lengdegrad: 029-51E, høyde over havet: 3 m

Gjeldene værobservasjon

Denne rapporten ble laget for 1 time og 5 minutter siden, klokken 09:50 UTC
Vind 12 kt fra Vest
Temperatur 12°C
Luftfuktighet 71%
Trykk 985 hPa
Sikt 10 km eller mer
ingen skyer under 1500 m og ingen bygeskyer

METAR: ENVD 210950Z 28012KT CAVOK 12/07 Q0985

Tid: 12:55 (10:55 UTC)

Varsel

Denne rapporten ble laget for 2 timer og 55 minutter siden, klokken 08:00 UTC
Varsel gyldig fra 21. klokken 09 UTC til 21. klokken 18 UTC
Vind 12 kt fra Sørvest
Sikt 10 km eller mer
Få skyer i en høyde av 5000 ft

TAF: ENVD 210800Z 2109/2118 23012KT 9999 FEW050

Værobservasjoner og værvarsel for over 4000 flyplasser (METAR- og TAF-rapporter).

Tilgjengelige stasjoner er representert av de røde og gule prikkene på kartet.

Hold musepekeren over prikken for å se navnet på stasjonen.

Klikk så for å se værobservasjoner og -varsler.

For å forandre kartet kan du klikke på den grønne knappen med svart kryss for å zoome inn, på den grønne knappen med strek for å zoome ut, eller på de grønne pilene for å se tilstøtende kart.


METAR-TAF: